CST,Max TemperatureF,Mean TemperatureF,Min TemperatureF,Max Dew PointF,MeanDew PointF,Min DewpointF,Max Humidity, Mean Humidity, Min Humidity, Max Sea Level PressureIn, Mean Sea Level PressureIn, Min Sea Level PressureIn, Max VisibilityMiles, Mean VisibilityMiles, Min VisibilityMiles, Max Wind SpeedMPH, Mean Wind SpeedMPH, Max Gust SpeedMPH,PrecipitationIn, CloudCover, Events, WindDirDegrees
2012-12-1,,,,,,,,,,,,,,,,,,,,,,
2012-12-2,,,,,,,,,,,,,,,,,,,,,,
2012-12-3,,,,,,,,,,,,,,,,,,,,,,
2012-12-4,,,,,,,,,,,,,,,,,,,,,,
2012-12-5,63,62,61,63,62,60,100,97,89,30.13,30.08,30.03,10,8,2,8,5,,0.14,8,Rain,356
2012-12-6,69,66,62,65,63,62,99,90,79,30.02,29.96,29.93,10,9,5,7,1,,0.00,7,Rain,107
2012-12-7,74,66,59,64,60,56,100,87,53,29.98,29.93,29.88,10,5,0,10,1,37,0.00,5,Fog,184
2012-12-8,76,64,53,62,58,52,100,82,48,29.99,29.94,29.90,10,7,0,8,1,,0.00,3,Fog,180
2012-12-9,78,68,59,70,66,60,100,88,66,29.99,29.93,29.89,10,9,0,16,4,26,0.00,6,Fog,178
2012-12-10,74,60,46,70,58,41,97,87,75,30.03,29.88,29.79,10,10,4,17,9,25,0.27,7,Rain-Thunderstorm,294
2012-12-11,46,42,39,42,35,31,88,72,57,30.18,30.10,30.00,10,10,10,9,5,,0.00,0,,12
2012-12-12,57,46,35,37,30,19,93,63,23,30.31,30.25,30.18,10,10,10,12,5,16,0.00,1,,359
2012-12-13,61,46,30,38,33,28,94,68,36,30.37,30.30,30.25,10,10,7,7,2,,0.00,0,,76
2012-12-14,68,51,34,54,46,34,99,83,58,30.29,30.20,30.07,10,10,7,10,3,,0.00,0,,106
2012-12-15,75,64,53,63,59,53,99,83,66,30.08,30.01,29.95,10,10,10,12,4,17,0.00,4,,162
2012-12-16,76,68,60,67,63,60,100,90,70,29.95,29.88,29.82,10,9,0,15,4,28,0.04,5,Fog-Rain-Thunderstorm,158
2012-12-17,68,58,47,64,57,45,100,88,59,29.94,29.83,29.78,10,9,3,10,4,17,0.06,4,Rain-Thunderstorm,254
2012-12-18,71,56,41,50,45,40,99,70,34,30.03,29.98,29.93,10,10,10,10,2,,0.00,0,,166
2012-12-19,77,63,49,71,60,48,100,84,58,30.01,29.93,29.84,10,10,7,15,4,20,0.00,3,Rain,163
2012-12-20,74,58,43,71,43,24,93,58,35,30.33,30.03,29.81,10,10,7,20,14,34,0.09,3,Rain,291
2012-12-21,57,46,34,32,22,12,86,44,20,30.47,30.38,30.32,10,10,10,13,7,18,0.00,0,,315
2012-12-22,62,46,30,38,30,23,96,61,23,30.43,30.34,30.24,10,9,4,7,1,,0.00,0,,141
2012-12-23,67,54,42,60,51,38,86,77,67,30.22,30.09,29.97,10,10,10,12,3,,0.00,6,,155
2012-12-24,77,68,60,66,62,60,100,83,54,29.96,29.89,29.84,10,9,1,12,5,20,0.00,5,Rain,218
2012-12-25,74,62,49,68,59,40,100,82,65,29.85,29.69,29.50,10,8,0,26,8,38,0.23,5,Fog-Rain-Thunderstorm,212
2012-12-26,48,43,38,39,34,31,86,74,65,30.18,30.06,29.81,10,10,10,21,12,32,0.00,6,,314
2012-12-27,52,44,36,47,38,32,90,80,63,30.20,30.10,30.01,10,10,10,7,3,,0.00,7,,94
2012-12-28,70,58,47,68,56,42,98,89,79,30.01,29.87,29.71,10,9,2,20,7,26,0.86,8,Rain-Thunderstorm,152
2012-12-29,48,43,38,42,33,27,85,68,50,30.43,30.25,30.01,10,10,10,18,10,26,0.01,4,,326
2012-12-30,51,41,31,33,28,23,85,63,34,30.52,30.43,30.33,10,10,10,10,4,18,0.00,0,,64
2012-12-31,63,52,40,56,45,32,92,73,62,30.32,30.19,30.03,10,10,10,10,5,16,0.00,7,,105